createdAt,value
2019-05-13T00:03:28.200Z,1.30
2019-05-13T00:08:33.806Z,1.23
2019-05-13T00:13:38.350Z,1.50
2019-05-13T00:18:44.254Z,1.27
2019-05-13T00:23:48.344Z,1.50
2019-05-13T00:28:53.429Z,1.63
2019-05-13T00:33:57.518Z,1.57
2019-05-13T00:39:03.831Z,1.50
2019-05-13T00:44:07.523Z,1.70
2019-05-13T00:49:13.435Z,1.40
2019-05-13T00:54:17.671Z,1.80
2019-05-13T00:59:24.094Z,1.50
2019-05-13T01:04:28.225Z,2.30
2019-05-13T01:09:34.251Z,2.17
2019-05-13T01:14:38.740Z,1.77
2019-05-13T01:19:43.384Z,2.23
2019-05-13T01:24:47.606Z,2.40
2019-05-13T01:29:53.441Z,1.87
2019-05-13T01:34:57.135Z,1.27
2019-05-13T01:40:01.401Z,1.57
2019-05-13T01:45:05.667Z,1.70
2019-05-13T01:50:09.935Z,1.60
2019-05-13T01:55:14.683Z,1.90
2019-05-13T02:00:19.450Z,1.70
2019-05-13T02:05:24.247Z,2.23
2019-05-13T02:10:56.739Z,1.40
2019-05-13T02:16:00.983Z,1.47
2019-05-13T02:21:05.644Z,1.70
2019-05-13T02:26:09.632Z,1.50
2019-05-13T02:31:21.217Z,1.57
2019-05-13T02:36:22.543Z,1.33
2019-05-13T02:41:24.764Z,1.87
2019-05-13T02:46:28.708Z,1.33
2019-05-13T02:51:32.960Z,2.20
2019-05-13T02:56:36.967Z,1.20
2019-05-13T03:01:43.229Z,1.80
2019-05-13T03:06:47.121Z,1.30
2019-05-13T03:11:53.530Z,2.07
2019-05-13T03:17:22.347Z,2.10
2019-05-13T03:22:25.398Z,1.80
2019-05-13T03:27:33.291Z,2.10
2019-05-13T03:32:43.587Z,2.33
2019-05-13T03:37:42.383Z,2.40
2019-05-13T03:42:48.959Z,2.20
2019-05-13T03:47:54.996Z,2.17
2019-05-13T03:53:02.666Z,1.80
2019-05-13T03:58:04.674Z,1.97
2019-05-13T04:03:08.671Z,1.77
2019-05-13T04:08:13.330Z,2.43
2019-05-13T04:13:17.364Z,2.40
2019-05-13T04:18:23.421Z,1.80
2019-05-13T04:23:27.873Z,2.30
2019-05-13T04:28:33.250Z,2.07
2019-05-13T04:33:37.775Z,2.67
2019-05-13T04:38:44.105Z,2.53
2019-05-13T04:43:47.783Z,2.83
2019-05-13T04:48:53.021Z,2.93
2019-05-13T04:53:57.755Z,2.80
2019-05-13T04:59:03.034Z,2.57
2019-05-13T05:04:30.558Z,2.70
2019-05-13T05:15:37.170Z,3.10
2019-05-13T05:20:48.663Z,2.53
2019-05-13T05:26:02.315Z,3.03
2019-05-13T05:31:37.011Z,3.40
2019-05-13T05:37:38.008Z,3.00
2019-05-13T05:42:44.219Z,2.00
2019-05-13T05:47:51.598Z,2.33
2019-05-13T05:52:57.215Z,2.10
2019-05-13T05:58:02.922Z,2.83
2019-05-13T06:03:06.928Z,2.30
2019-05-13T06:08:11.499Z,2.87
2019-05-13T06:13:15.848Z,3.40
2019-05-13T06:18:22.257Z,2.33
2019-05-13T06:23:26.259Z,3.43
2019-05-13T06:28:32.234Z,2.33
2019-05-13T06:33:35.795Z,2.00
2019-05-13T06:38:42.484Z,2.60
2019-05-13T06:43:45.842Z,2.43
2019-05-13T06:48:52.029Z,2.27
2019-05-13T06:53:56.151Z,2.47
2019-05-13T06:59:01.494Z,1.90
2019-05-13T07:04:05.950Z,2.30
2019-05-13T07:09:11.865Z,2.60
2019-05-13T07:14:15.647Z,2.23
2019-05-13T07:19:19.816Z,2.40
2019-05-13T07:24:23.734Z,2.60
2019-05-13T07:29:27.716Z,1.93
2019-05-13T07:34:33.742Z,2.03
2019-05-13T07:39:38.145Z,2.40
2019-05-13T07:44:42.284Z,1.70
2019-05-13T07:49:46.711Z,1.40
2019-05-13T07:54:52.054Z,2.27
2019-05-13T07:59:56.039Z,2.13
2019-05-13T08:05:02.468Z,2.20
2019-05-13T08:10:06.722Z,2.40
2019-05-13T08:15:11.899Z,2.70
2019-05-13T08:20:16.132Z,2.77
2019-05-13T08:25:22.281Z,2.23
2019-05-13T08:30:26.215Z,2.40
2019-05-13T08:35:31.471Z,2.40
2019-05-13T08:40:35.808Z,2.73
2019-05-13T08:45:42.090Z,2.97
2019-05-13T08:50:45.914Z,3.40
2019-05-13T08:55:51.740Z,2.27
2019-05-13T09:00:58.959Z,3.07
2019-05-13T09:06:03.040Z,2.83
2019-05-13T09:11:07.968Z,2.50
2019-05-13T09:16:13.349Z,3.07
2019-05-13T09:21:18.017Z,2.97
2019-05-13T09:26:22.582Z,2.33
2019-05-13T09:31:26.727Z,2.70
2019-05-13T09:36:32.364Z,3.10
2019-05-13T09:41:40.906Z,2.93
2019-05-13T09:46:42.662Z,2.50
2019-05-13T09:51:47.054Z,2.30
2019-05-13T09:56:51.853Z,3.13
2019-05-13T10:01:56.076Z,2.67
2019-05-13T10:07:02.102Z,1.93
2019-05-13T10:12:06.108Z,2.10
2019-05-13T10:17:12.771Z,2.57
2019-05-13T10:22:16.344Z,2.10
2019-05-13T10:27:22.281Z,2.10
2019-05-13T10:32:27.098Z,1.50
2019-05-13T10:37:31.612Z,1.60
2019-05-13T10:42:35.868Z,1.43
2019-05-13T10:47:42.138Z,1.70
2019-05-13T10:52:45.290Z,1.87
2019-05-13T10:57:51.393Z,1.53
2019-05-13T11:02:55.267Z,1.40
2019-05-13T11:08:01.663Z,1.83
2019-05-13T11:13:06.054Z,1.20
2019-05-13T11:18:18.988Z,1.30
2019-05-13T11:23:17.507Z,1.30
2019-05-13T11:28:21.434Z,1.50
2019-05-13T11:33:25.275Z,1.70
2019-05-13T11:38:32.426Z,1.53
2019-05-13T11:43:35.464Z,1.97
2019-05-13T11:48:41.820Z,1.27
2019-05-13T11:53:45.244Z,0.97
2019-05-13T11:58:53.144Z,1.20
2019-05-13T12:03:55.139Z,2.33
2019-05-13T12:09:02.788Z,0.93
2019-05-13T12:14:05.314Z,1.27
2019-05-13T12:19:11.866Z,1.80
2019-05-13T12:24:15.375Z,1.07
2019-05-13T12:29:19.520Z,1.13
2019-05-13T12:34:23.766Z,1.27
2019-05-13T12:39:27.682Z,1.10
2019-05-13T12:44:31.694Z,1.07
2019-05-13T12:49:36.746Z,1.10
2019-05-13T12:54:43.720Z,1.27
2019-05-13T12:59:47.042Z,1.30
2019-05-13T13:05:08.733Z,1.40
2019-05-13T13:09:57.182Z,1.40
2019-05-13T13:15:20.295Z,1.10
2019-05-13T13:20:09.695Z,1.20
2019-05-13T13:25:15.950Z,1.43
2019-05-13T13:30:20.318Z,1.00
2019-05-13T13:35:25.182Z,1.20
2019-05-13T13:40:34.221Z,1.57
2019-05-13T13:46:06.142Z,1.40
2019-05-13T13:50:44.384Z,1.50
2019-05-13T13:55:47.020Z,1.07
2019-05-13T14:01:05.519Z,1.40
2019-05-13T14:05:57.144Z,1.57
2019-05-13T14:11:02.099Z,1.40
2019-05-13T14:16:21.498Z,1.47
2019-05-13T14:21:12.111Z,1.40
2019-05-13T14:26:16.343Z,1.63
2019-05-13T14:31:21.392Z,1.37
2019-05-13T14:36:25.907Z,1.87
2019-05-13T14:41:31.268Z,1.70
2019-05-13T14:46:46.263Z,1.53
2019-05-13T14:51:41.679Z,1.57
2019-05-13T14:56:46.007Z,1.57
2019-05-13T15:01:51.881Z,1.73
2019-05-13T15:06:56.010Z,1.80
2019-05-13T15:12:02.025Z,1.27
2019-05-13T15:17:07.572Z,2.23
2019-05-13T15:22:15.554Z,2.57
2019-05-13T15:27:17.671Z,1.83
2019-05-13T15:32:21.906Z,1.93
2019-05-13T15:37:26.643Z,1.70
2019-05-13T15:42:31.936Z,2.30
2019-05-13T15:47:36.055Z,4.10
2019-05-13T15:52:42.924Z,4.50
2019-05-13T15:57:45.769Z,4.20
2019-05-13T16:02:52.083Z,2.20
2019-05-13T16:07:55.932Z,2.00
2019-05-13T16:13:01.744Z,1.90
2019-05-13T16:18:05.812Z,2.63
2019-05-13T16:23:12.165Z,2.27
2019-05-13T16:28:15.978Z,1.90
2019-05-13T16:33:20.276Z,2.17
2019-05-13T16:38:24.502Z,2.00
2019-05-13T16:43:28.755Z,1.80
2019-05-13T16:48:32.903Z,1.60
2019-05-13T16:53:36.751Z,2.57
2019-05-13T16:58:41.757Z,2.20
2019-05-13T17:03:46.184Z,1.70
2019-05-13T17:08:51.624Z,1.50
2019-05-13T17:13:56.201Z,1.70
2019-05-13T17:19:01.414Z,2.00
2019-05-13T17:24:05.605Z,1.90
2019-05-13T17:29:11.776Z,2.20
2019-05-13T17:34:15.322Z,1.50
2019-05-13T17:39:21.343Z,1.83
2019-05-13T17:44:25.270Z,1.53
2019-05-13T17:49:31.824Z,1.80
2019-05-13T17:54:35.942Z,2.07
2019-05-13T17:59:41.816Z,1.90
2019-05-13T18:04:45.843Z,1.57
2019-05-13T18:09:51.985Z,1.23
2019-05-13T18:14:55.899Z,1.73
2019-05-13T18:20:02.416Z,1.30
2019-05-13T18:25:05.839Z,1.83
2019-05-13T18:30:11.560Z,1.90
2019-05-13T18:35:16.316Z,1.77
2019-05-13T18:40:21.935Z,1.77
2019-05-13T18:45:26.527Z,1.93
2019-05-13T18:50:31.377Z,1.70
2019-05-13T18:55:35.479Z,2.33
2019-05-13T19:00:41.471Z,1.60
2019-05-13T19:05:45.307Z,2.13
2019-05-13T19:10:49.467Z,1.50
2019-05-13T19:15:53.659Z,2.17
2019-05-13T19:20:57.853Z,1.33
2019-05-13T19:26:02.102Z,1.40
2019-05-13T19:31:06.676Z,1.60
2019-05-13T19:36:11.800Z,1.70
2019-05-13T19:41:18.994Z,1.60
2019-05-13T19:46:21.459Z,1.50
2019-05-13T19:51:28.206Z,1.60
2019-05-13T19:56:31.991Z,1.33
2019-05-13T20:01:36.378Z,1.60
2019-05-13T20:06:41.471Z,1.20
2019-05-13T20:11:45.890Z,2.00
2019-05-13T20:16:52.461Z,0.93
2019-05-13T20:21:56.271Z,1.40
2019-05-13T20:27:01.707Z,1.17
2019-05-13T20:32:05.734Z,1.30
2019-05-13T20:37:12.255Z,1.77
2019-05-13T20:42:16.791Z,1.30
2019-05-13T20:47:21.343Z,1.30
2019-05-13T20:52:25.631Z,1.40
2019-05-13T20:57:29.478Z,0.90
2019-05-13T21:02:33.622Z,1.10
2019-05-13T21:07:37.879Z,1.20
2019-05-13T21:12:42.620Z,1.27
2019-05-13T21:17:46.836Z,1.30
2019-05-13T21:22:51.716Z,1.27
2019-05-13T21:27:56.030Z,1.10
2019-05-13T21:33:02.115Z,1.40
2019-05-13T21:38:06.124Z,1.13
2019-05-13T21:43:10.038Z,1.10
2019-05-13T21:48:14.615Z,1.27
2019-05-13T21:53:21.735Z,1.07
2019-05-13T21:58:24.902Z,1.00
2019-05-13T22:03:33.138Z,1.00
2019-05-13T22:08:34.522Z,1.20
2019-05-13T22:13:38.374Z,1.00
2019-05-13T22:18:42.559Z,0.73
2019-05-13T22:23:46.563Z,0.97
2019-05-13T22:28:51.218Z,1.20
2019-05-13T22:33:55.987Z,1.03
2019-05-13T22:39:01.971Z,1.20
2019-05-13T22:44:05.803Z,1.00
2019-05-13T22:49:11.601Z,0.80
2019-05-13T22:54:15.767Z,1.07
2019-05-13T22:59:21.488Z,1.37
2019-05-13T23:04:26.095Z,0.87
2019-05-13T23:09:32.216Z,1.20
2019-05-13T23:14:36.003Z,1.27
2019-05-13T23:19:41.492Z,1.00
2019-05-13T23:24:45.446Z,1.17
2019-05-13T23:29:51.702Z,1.23
2019-05-13T23:34:56.091Z,1.03
2019-05-13T23:40:01.451Z,1.10
2019-05-13T23:45:05.991Z,1.33
2019-05-13T23:50:12.481Z,1.00
2019-05-13T23:55:16.578Z,0.77
